createdAt,value
2023-01-06T00:01:40.981Z,9.19
2023-01-06T00:04:13.361Z,9.16
2023-01-06T00:06:45.708Z,9.28
2023-01-06T00:09:17.999Z,9.40
2023-01-06T00:11:49.869Z,9.41
2023-01-06T00:14:22.615Z,9.44
2023-01-06T00:16:54.891Z,9.41
2023-01-06T00:19:27.683Z,9.39
2023-01-06T00:21:59.547Z,9.36
2023-01-06T00:24:35.415Z,9.34
2023-01-06T00:27:07.311Z,9.25
2023-01-06T00:29:40.020Z,9.27
2023-01-06T00:32:12.393Z,9.24
2023-01-06T00:34:44.758Z,9.19
2023-01-06T00:37:17.897Z,9.23
2023-01-06T00:39:49.752Z,9.11
2023-01-06T00:42:23.015Z,9.06
2023-01-06T00:44:54.915Z,9.13
2023-01-06T00:47:27.632Z,9.09
2023-01-06T00:50:00.705Z,9.03
2023-01-06T00:52:34.254Z,9.00
2023-01-06T00:55:07.845Z,8.87
2023-01-06T00:57:41.315Z,8.71
2023-01-06T01:00:13.626Z,8.65
2023-01-06T01:02:46.486Z,8.60
2023-01-06T01:05:19.079Z,8.56
2023-01-06T01:07:51.412Z,8.53
2023-01-06T01:10:26.607Z,8.41
2023-01-06T01:12:59.334Z,8.48
2023-01-06T01:15:31.521Z,8.47
2023-01-06T01:18:04.756Z,8.47
2023-01-06T01:20:37.086Z,8.40
2023-01-06T01:23:08.988Z,8.35
2023-01-06T01:25:42.093Z,8.40
2023-01-06T01:28:13.989Z,8.40
2023-01-06T01:30:47.080Z,8.38
2023-01-06T01:33:19.413Z,8.31
2023-01-06T01:35:51.396Z,8.28
2023-01-06T01:38:27.181Z,8.22
2023-01-06T01:40:59.089Z,8.17
2023-01-06T01:43:58.761Z,8.07
2023-01-06T01:46:40.003Z,8.13
2023-01-06T01:49:22.445Z,8.13
2023-01-06T01:51:57.302Z,8.15
2023-01-06T01:54:33.201Z,8.08
2023-01-06T01:57:13.449Z,8.10
2023-01-06T01:59:46.573Z,8.09
2023-01-06T02:02:21.363Z,8.12
2023-01-06T02:04:55.748Z,8.14
2023-01-06T02:07:28.438Z,8.12
2023-01-06T02:10:23.794Z,8.01
2023-01-06T02:12:59.072Z,8.07
2023-01-06T02:15:34.665Z,8.11
2023-01-06T02:18:42.482Z,8.03
2023-01-06T02:21:42.084Z,7.94
2023-01-06T02:24:30.287Z,7.77
2023-01-06T02:27:33.314Z,7.81
2023-01-06T02:30:39.053Z,7.73
2023-01-06T02:33:34.143Z,7.77
2023-01-06T02:36:12.118Z,7.74
2023-01-06T02:39:14.268Z,7.71
2023-01-06T02:42:16.313Z,7.66
2023-01-06T02:45:30.195Z,7.65
2023-01-06T02:48:32.763Z,7.64
2023-01-06T02:51:29.854Z,7.65
2023-01-06T02:54:43.878Z,7.65
2023-01-06T02:57:31.684Z,7.59
2023-01-06T03:00:32.559Z,7.53
2023-01-06T03:03:11.545Z,7.40
2023-01-06T03:05:48.332Z,7.43
2023-01-06T03:08:26.873Z,7.43
2023-01-06T03:11:01.252Z,7.36
2023-01-06T03:14:10.723Z,7.27
2023-01-06T03:16:43.766Z,7.21
2023-01-06T03:19:16.353Z,7.23
2023-01-06T03:21:51.986Z,7.15
2023-01-06T03:24:28.673Z,7.10
2023-01-06T03:27:01.515Z,7.10
2023-01-06T03:29:34.951Z,7.11
2023-01-06T03:32:33.190Z,7.01
2023-01-06T03:35:28.202Z,7.05
2023-01-06T03:38:29.483Z,7.06
2023-01-06T03:41:56.768Z,7.22
2023-01-06T03:44:54.349Z,7.22
2023-01-06T03:47:56.310Z,7.17
2023-01-06T03:50:45.421Z,7.02
2023-01-06T03:53:49.437Z,6.93
2023-01-06T03:56:34.194Z,7.00
2023-01-06T03:59:16.914Z,6.99
2023-01-06T04:01:51.039Z,6.98
2023-01-06T04:04:24.746Z,6.94
2023-01-06T04:06:58.005Z,6.84
2023-01-06T04:09:30.945Z,6.76
2023-01-06T04:12:21.704Z,6.64
2023-01-06T04:14:54.672Z,6.58
2023-01-06T04:17:26.687Z,6.60
2023-01-06T04:19:59.468Z,6.65
2023-01-06T04:22:31.472Z,6.79
2023-01-06T04:25:05.989Z,6.90
2023-01-06T04:27:38.715Z,7.12
2023-01-06T04:30:12.292Z,6.96
2023-01-06T04:32:44.655Z,6.84
2023-01-06T04:35:17.912Z,6.70
2023-01-06T04:37:50.436Z,6.57
2023-01-06T04:40:22.783Z,6.57
2023-01-06T04:43:06.457Z,6.61
2023-01-06T04:45:41.371Z,6.54
2023-01-06T04:48:14.448Z,6.52
2023-01-06T04:50:47.151Z,6.62
2023-01-06T04:53:19.088Z,6.58
2023-01-06T04:55:51.446Z,6.71
2023-01-06T04:58:23.350Z,6.73
2023-01-06T05:01:05.061Z,6.75
2023-01-06T05:03:38.285Z,6.75
2023-01-06T05:06:12.234Z,6.65
2023-01-06T05:08:46.294Z,6.70
2023-01-06T05:11:22.281Z,6.74
2023-01-06T05:13:55.117Z,6.74
2023-01-06T05:16:38.676Z,6.80
2023-01-06T05:19:11.457Z,6.84
2023-01-06T05:21:43.776Z,7.21
2023-01-06T05:24:15.988Z,7.04
2023-01-06T05:26:47.899Z,7.10
2023-01-06T05:29:19.823Z,7.19
2023-01-06T05:31:53.763Z,7.23
2023-01-06T05:34:25.807Z,7.31
2023-01-06T05:36:58.701Z,7.40
2023-01-06T05:39:30.577Z,7.41
2023-01-06T05:42:03.404Z,7.52
2023-01-06T05:44:35.745Z,7.55
2023-01-06T05:47:08.086Z,7.62
2023-01-06T05:49:40.039Z,7.65
2023-01-06T05:52:13.214Z,7.77
2023-01-06T05:54:45.141Z,7.86
2023-01-06T05:57:17.875Z,7.89
2023-01-06T05:59:50.375Z,7.92
2023-01-06T06:02:22.293Z,8.00
2023-01-06T06:04:55.020Z,8.05
2023-01-06T06:07:27.314Z,8.16
2023-01-06T06:10:00.055Z,8.28
2023-01-06T06:12:33.310Z,8.15
2023-01-06T06:15:06.602Z,7.96
2023-01-06T06:17:38.511Z,7.81
2023-01-06T06:20:11.450Z,7.73
2023-01-06T06:22:43.763Z,7.74
2023-01-06T06:25:16.459Z,7.66
2023-01-06T06:27:49.277Z,7.58
2023-01-06T06:30:21.603Z,7.36
2023-01-06T06:32:54.404Z,7.43
2023-01-06T06:35:26.648Z,7.19
2023-01-06T06:37:58.969Z,7.22
2023-01-06T06:40:30.859Z,7.10
2023-01-06T06:43:03.220Z,7.30
2023-01-06T06:45:35.128Z,7.15
2023-01-06T06:48:08.255Z,7.12
2023-01-06T06:50:40.389Z,7.15
2023-01-06T06:53:13.095Z,7.19
2023-01-06T06:55:48.635Z,7.21
2023-01-06T06:58:23.583Z,7.39
2023-01-06T07:00:56.001Z,7.31
2023-01-06T07:03:27.888Z,7.39
2023-01-06T07:06:00.841Z,7.47
2023-01-06T07:08:35.687Z,7.46
2023-01-06T07:11:07.986Z,7.55
2023-01-06T07:13:40.132Z,7.62
2023-01-06T07:16:12.735Z,7.59
2023-01-06T07:18:45.101Z,7.66
2023-01-06T07:21:18.247Z,7.71
2023-01-06T07:23:50.123Z,7.76
2023-01-06T07:26:23.404Z,7.99
2023-01-06T07:28:55.319Z,8.12
2023-01-06T07:31:28.157Z,8.27
2023-01-06T07:34:00.468Z,8.03
2023-01-06T07:36:33.192Z,8.12
2023-01-06T07:39:05.288Z,8.10
2023-01-06T07:41:37.620Z,8.20
2023-01-06T07:44:17.876Z,8.22
2023-01-06T07:46:49.956Z,8.35
2023-01-06T07:49:22.298Z,8.48
2023-01-06T07:51:54.256Z,8.36
2023-01-06T07:54:26.668Z,8.47
2023-01-06T07:56:59.309Z,8.56
2023-01-06T07:59:32.228Z,8.74
2023-01-06T08:02:05.132Z,8.85
2023-01-06T08:04:37.877Z,8.92
2023-01-06T08:07:10.701Z,8.94
2023-01-06T08:09:42.812Z,8.77
2023-01-06T08:12:16.111Z,8.89
2023-01-06T08:14:47.999Z,9.17
2023-01-06T08:17:21.164Z,9.03
2023-01-06T08:19:54.217Z,9.08
2023-01-06T08:22:27.013Z,9.32
2023-01-06T08:24:59.958Z,9.50
2023-01-06T08:27:32.296Z,9.46
2023-01-06T08:30:06.804Z,9.70
2023-01-06T08:32:38.706Z,9.86
2023-01-06T08:35:11.417Z,9.98
2023-01-06T08:37:43.862Z,10.03
2023-01-06T08:40:15.820Z,10.05
2023-01-06T08:42:48.270Z,10.18
2023-01-06T08:45:20.629Z,10.28
2023-01-06T08:47:52.508Z,10.46
2023-01-06T08:50:26.631Z,10.51
2023-01-06T08:53:00.140Z,10.66
2023-01-06T08:55:33.709Z,10.78
2023-01-06T08:58:06.598Z,10.90
2023-01-06T09:00:42.308Z,11.10
2023-01-06T09:03:14.197Z,11.13
2023-01-06T09:05:56.108Z,11.06
2023-01-06T09:08:29.129Z,10.82
2023-01-06T09:11:07.646Z,10.79
2023-01-06T09:13:39.598Z,11.00
2023-01-06T09:16:13.980Z,11.10
2023-01-06T09:18:50.608Z,11.14
2023-01-06T09:21:24.124Z,11.26
2023-01-06T09:23:56.867Z,11.36
2023-01-06T09:26:28.822Z,11.42
2023-01-06T09:29:23.321Z,11.34
2023-01-06T09:31:55.645Z,11.44
2023-01-06T09:34:28.028Z,11.40
2023-01-06T09:37:00.439Z,11.47
2023-01-06T09:39:32.312Z,11.49
2023-01-06T09:42:25.794Z,11.56
2023-01-06T09:45:08.898Z,11.54
2023-01-06T09:47:49.899Z,11.49
2023-01-06T09:50:52.002Z,11.59
2023-01-06T09:53:35.186Z,11.67
2023-01-06T09:56:14.638Z,11.61
2023-01-06T09:58:51.375Z,11.73
2023-01-06T10:01:32.349Z,11.70
2023-01-06T10:04:04.402Z,11.71
2023-01-06T10:07:13.615Z,11.84
2023-01-06T10:10:34.916Z,11.86
2023-01-06T10:13:39.702Z,11.76
2023-01-06T10:17:09.307Z,12.04
2023-01-06T10:20:06.752Z,12.14
2023-01-06T10:23:06.189Z,12.19
2023-01-06T10:25:53.372Z,12.47
2023-01-06T10:28:36.363Z,12.95
2023-01-06T10:31:17.438Z,13.06
2023-01-06T10:33:59.041Z,13.14
2023-01-06T10:36:44.286Z,12.80
2023-01-06T10:39:21.049Z,12.88
2023-01-06T10:42:42.009Z,12.83
2023-01-06T10:45:14.641Z,13.07
2023-01-06T10:47:47.775Z,13.54
2023-01-06T10:50:20.226Z,15.26
2023-01-06T10:52:53.473Z,15.48
2023-01-06T10:55:25.280Z,15.42
2023-01-06T10:58:07.927Z,14.95
2023-01-06T11:01:02.559Z,16.08
2023-01-06T11:03:36.889Z,16.19
2023-01-06T11:06:29.026Z,16.24
2023-01-06T11:09:32.591Z,14.98
2023-01-06T11:12:14.697Z,15.57
2023-01-06T11:15:22.361Z,16.71
2023-01-06T11:17:54.280Z,16.84
2023-01-06T11:20:26.892Z,16.76
2023-01-06T11:23:21.474Z,17.45
2023-01-06T11:26:17.548Z,16.25
2023-01-06T11:28:55.059Z,17.25
2023-01-06T11:31:28.247Z,16.27
2023-01-06T11:34:04.068Z,16.31
2023-01-06T11:36:45.554Z,15.88
2023-01-06T11:39:38.877Z,16.12
2023-01-06T11:42:14.692Z,16.06
2023-01-06T11:44:47.459Z,16.55
2023-01-06T11:47:24.998Z,16.10
2023-01-06T11:50:01.210Z,15.82
2023-01-06T11:52:34.126Z,16.20
2023-01-06T11:55:10.219Z,15.66
2023-01-06T11:57:52.939Z,15.36
2023-01-06T12:00:59.233Z,15.42
2023-01-06T12:03:41.950Z,15.69
2023-01-06T12:06:17.085Z,15.48
2023-01-06T12:09:16.901Z,14.95
2023-01-06T12:11:55.727Z,15.11
2023-01-06T12:14:36.006Z,15.63
2023-01-06T12:17:36.245Z,15.06
2023-01-06T12:20:13.395Z,15.60
2023-01-06T12:22:53.517Z,16.28
2023-01-06T12:25:30.407Z,15.96
2023-01-06T12:28:32.475Z,15.98
2023-01-06T12:31:25.369Z,16.43
2023-01-06T12:34:24.567Z,16.23
2023-01-06T12:37:32.576Z,15.84
2023-01-06T12:40:31.472Z,15.02
2023-01-06T12:43:23.729Z,14.42
2023-01-06T12:46:13.851Z,13.98
2023-01-06T12:48:54.931Z,13.92
2023-01-06T12:51:44.473Z,14.38
2023-01-06T12:54:53.057Z,14.46
2023-01-06T12:57:38.771Z,13.99
2023-01-06T13:00:26.443Z,13.66
2023-01-06T13:03:44.382Z,13.61
2023-01-06T13:06:36.700Z,13.59
2023-01-06T13:09:31.014Z,13.17
2023-01-06T13:12:18.249Z,13.57
2023-01-06T13:15:17.933Z,13.47
2023-01-06T13:18:19.770Z,13.65
2023-01-06T13:21:11.827Z,13.67
2023-01-06T13:24:18.164Z,13.32
2023-01-06T13:27:32.790Z,13.06
2023-01-06T13:30:26.152Z,12.76
2023-01-06T13:33:22.370Z,12.72
2023-01-06T13:36:29.426Z,12.95
2023-01-06T13:39:20.062Z,12.85
2023-01-06T13:41:56.037Z,12.67
2023-01-06T13:44:31.817Z,12.81
2023-01-06T13:47:18.155Z,12.81
2023-01-06T13:49:50.825Z,12.76
2023-01-06T13:52:30.785Z,12.71
2023-01-06T13:55:21.938Z,12.59
2023-01-06T13:57:55.003Z,12.53
2023-01-06T14:00:29.142Z,12.35
2023-01-06T14:03:13.771Z,12.36
2023-01-06T14:05:48.890Z,12.34
2023-01-06T14:08:22.636Z,12.37
2023-01-06T14:11:30.404Z,12.41
2023-01-06T14:14:07.017Z,12.31
2023-01-06T14:16:50.093Z,12.23
2023-01-06T14:19:30.799Z,12.32
2023-01-06T14:22:23.409Z,12.31
2023-01-06T14:25:02.952Z,12.39
2023-01-06T14:28:01.924Z,12.35
2023-01-06T14:30:36.650Z,12.16
2023-01-06T14:33:31.042Z,12.23
2023-01-06T14:36:17.191Z,12.41
2023-01-06T14:38:55.544Z,12.33
2023-01-06T14:41:39.285Z,12.39
2023-01-06T14:44:27.800Z,12.40
2023-01-06T14:47:07.139Z,12.32
2023-01-06T14:49:54.703Z,12.22
2023-01-06T14:52:34.419Z,12.21
2023-01-06T14:55:14.494Z,12.11
2023-01-06T14:57:51.128Z,12.14
2023-01-06T15:00:31.113Z,12.07
2023-01-06T15:03:05.994Z,12.08
2023-01-06T15:05:39.830Z,12.03
2023-01-06T15:08:12.493Z,11.92
2023-01-06T15:10:50.427Z,11.85
2023-01-06T15:13:33.198Z,11.80
2023-01-06T15:16:29.047Z,11.84
2023-01-06T15:19:01.650Z,11.78
2023-01-06T15:21:40.682Z,11.77
2023-01-06T15:24:25.889Z,11.68
2023-01-06T15:27:16.046Z,11.64
2023-01-06T15:29:54.297Z,11.61
2023-01-06T15:32:28.424Z,11.66
2023-01-06T15:35:01.274Z,11.56
2023-01-06T15:37:35.386Z,11.56
2023-01-06T15:40:08.433Z,11.63
2023-01-06T15:42:41.537Z,11.58
2023-01-06T15:45:30.948Z,11.59
2023-01-06T15:48:17.433Z,11.54
2023-01-06T15:50:52.105Z,11.50
2023-01-06T15:53:32.416Z,11.45
2023-01-06T15:56:06.281Z,11.45
2023-01-06T15:58:40.344Z,11.34
2023-01-06T16:01:23.971Z,11.29
2023-01-06T16:03:59.955Z,11.32
2023-01-06T16:06:41.217Z,11.28
2023-01-06T16:09:30.557Z,11.23
2023-01-06T16:12:20.327Z,11.13
2023-01-06T16:14:52.311Z,11.11
2023-01-06T16:17:32.085Z,11.04
2023-01-06T16:20:08.476Z,11.04
2023-01-06T16:22:55.455Z,10.99
2023-01-06T16:25:32.518Z,10.97
2023-01-06T16:28:06.000Z,10.97
2023-01-06T16:30:38.767Z,10.96
2023-01-06T16:33:42.643Z,10.90
2023-01-06T16:36:18.581Z,10.92
2023-01-06T16:38:50.478Z,10.95
2023-01-06T16:41:23.616Z,10.94
2023-01-06T16:43:56.329Z,10.92
2023-01-06T16:46:28.282Z,10.90
2023-01-06T16:49:08.922Z,10.89
2023-01-06T16:51:44.812Z,10.89
2023-01-06T16:54:19.118Z,10.89
2023-01-06T16:56:52.343Z,10.88
2023-01-06T16:59:26.583Z,10.92
2023-01-06T17:01:58.840Z,10.91
2023-01-06T17:04:32.071Z,10.92
2023-01-06T17:07:11.758Z,10.93
2023-01-06T17:09:47.597Z,10.99
2023-01-06T17:12:39.518Z,10.96
2023-01-06T17:15:13.182Z,11.02
2023-01-06T17:17:45.093Z,10.99
2023-01-06T17:20:17.906Z,10.98
2023-01-06T17:22:52.162Z,10.88
2023-01-06T17:25:25.854Z,10.94
2023-01-06T17:27:57.882Z,10.90
2023-01-06T17:30:30.630Z,10.90
2023-01-06T17:33:02.814Z,10.91
2023-01-06T17:35:35.613Z,10.94
2023-01-06T17:38:25.096Z,10.93
2023-01-06T17:40:58.538Z,10.95
2023-01-06T17:43:33.720Z,10.91
2023-01-06T17:46:30.514Z,10.96
2023-01-06T17:49:18.192Z,10.83
2023-01-06T17:51:52.035Z,10.92
2023-01-06T17:54:44.722Z,10.88
2023-01-06T17:57:19.437Z,10.85
2023-01-06T17:59:55.922Z,10.93
2023-01-06T18:02:43.720Z,10.95
2023-01-06T18:05:24.588Z,10.91
2023-01-06T18:08:07.865Z,10.94
2023-01-06T18:10:57.961Z,10.96
2023-01-06T18:13:41.820Z,10.96
2023-01-06T18:16:33.194Z,10.97
2023-01-06T18:19:25.883Z,10.91
2023-01-06T18:21:58.638Z,10.90
2023-01-06T18:24:37.816Z,10.94
2023-01-06T18:27:35.105Z,10.99
2023-01-06T18:30:29.373Z,11.02
2023-01-06T18:33:02.077Z,10.95
2023-01-06T18:35:34.771Z,10.88
2023-01-06T18:38:07.616Z,11.00
2023-01-06T18:40:40.242Z,10.93
2023-01-06T18:43:30.000Z,10.97
2023-01-06T18:46:12.505Z,10.92
2023-01-06T18:48:45.418Z,10.97
2023-01-06T18:51:23.691Z,10.90
2023-01-06T18:53:57.321Z,10.85
2023-01-06T18:56:30.147Z,10.85
2023-01-06T18:59:02.032Z,10.72
2023-01-06T19:01:52.933Z,10.66
2023-01-06T19:04:30.441Z,10.67
2023-01-06T19:07:16.161Z,10.74
2023-01-06T19:09:50.360Z,10.75
2023-01-06T19:12:33.636Z,10.72
2023-01-06T19:15:26.784Z,10.70
2023-01-06T19:18:01.398Z,10.63
2023-01-06T19:20:38.273Z,10.55
2023-01-06T19:23:23.624Z,10.54
2023-01-06T19:26:05.998Z,10.47
2023-01-06T19:31:32.674Z,11.46
2023-01-06T19:34:06.245Z,11.13
2023-01-06T19:36:50.025Z,10.89
2023-01-06T19:39:30.709Z,10.75
2023-01-06T19:42:27.167Z,10.58
2023-01-06T19:45:09.718Z,10.47
2023-01-06T19:47:42.272Z,10.31
2023-01-06T19:50:23.865Z,10.35
2023-01-06T19:52:59.543Z,10.18
2023-01-06T19:55:33.240Z,10.27
2023-01-06T19:58:18.339Z,10.12
2023-01-06T20:00:52.502Z,10.07
2023-01-06T20:03:38.240Z,10.09
2023-01-06T20:06:10.220Z,10.05
2023-01-06T20:08:44.135Z,9.91
2023-01-06T20:11:16.454Z,10.01
2023-01-06T20:13:49.546Z,9.94
2023-01-06T20:16:21.588Z,9.94
2023-01-06T20:18:54.569Z,9.88
2023-01-06T20:21:26.501Z,9.85
2023-01-06T20:24:01.026Z,9.90
2023-01-06T20:26:34.915Z,9.86
2023-01-06T20:29:06.798Z,9.81
2023-01-06T20:31:39.603Z,9.80
2023-01-06T20:34:11.540Z,9.92
2023-01-06T20:36:44.315Z,9.83
2023-01-06T20:39:16.788Z,9.83
2023-01-06T20:41:49.290Z,9.65
2023-01-06T20:44:22.368Z,9.60
2023-01-06T20:46:54.740Z,9.74
2023-01-06T20:49:26.612Z,9.64
2023-01-06T20:52:00.594Z,9.57
2023-01-06T20:54:33.320Z,9.63
2023-01-06T20:57:06.584Z,9.66
2023-01-06T20:59:38.909Z,9.69
2023-01-06T21:02:10.935Z,9.71
2023-01-06T21:05:06.625Z,9.68
2023-01-06T21:07:41.165Z,9.64
2023-01-06T21:10:13.770Z,9.64
2023-01-06T21:12:49.627Z,9.75
2023-01-06T21:15:21.505Z,9.71
2023-01-06T21:17:54.236Z,9.75
2023-01-06T21:20:26.121Z,9.84
2023-01-06T21:22:58.883Z,9.69
2023-01-06T21:25:31.042Z,9.66
2023-01-06T21:28:03.990Z,9.72
2023-01-06T21:30:35.993Z,9.71
2023-01-06T21:33:08.759Z,9.76
2023-01-06T21:35:40.711Z,9.63
2023-01-06T21:38:13.508Z,9.65
2023-01-06T21:40:46.405Z,9.66
2023-01-06T21:43:19.309Z,9.61
2023-01-06T21:45:52.522Z,9.56
2023-01-06T21:48:25.795Z,9.54
2023-01-06T21:50:58.551Z,9.53
2023-01-06T21:53:32.063Z,9.47
2023-01-06T21:56:04.584Z,9.47
2023-01-06T21:58:38.845Z,9.45
2023-01-06T22:01:11.694Z,9.50
2023-01-06T22:03:43.909Z,9.47
2023-01-06T22:06:18.818Z,9.59
2023-01-06T22:08:53.366Z,9.53
2023-01-06T22:11:27.654Z,9.59
2023-01-06T22:14:01.062Z,9.50
2023-01-06T22:16:34.163Z,9.52
2023-01-06T22:19:06.910Z,9.51
2023-01-06T22:21:42.363Z,9.58
2023-01-06T22:24:17.324Z,9.53
2023-01-06T22:26:49.241Z,9.53
2023-01-06T22:29:22.001Z,9.61
2023-01-06T22:31:54.713Z,9.63
2023-01-06T22:34:26.689Z,9.63
2023-01-06T22:36:59.433Z,9.55
2023-01-06T22:39:32.375Z,9.41
2023-01-06T22:42:05.244Z,9.40
2023-01-06T22:44:37.553Z,9.44
2023-01-06T22:47:10.678Z,9.47
2023-01-06T22:49:44.750Z,9.48
2023-01-06T22:52:20.614Z,9.47
2023-01-06T22:54:53.908Z,9.42
2023-01-06T22:57:25.784Z,9.37
2023-01-06T23:00:00.515Z,9.49
2023-01-06T23:02:57.630Z,9.54
2023-01-06T23:05:30.636Z,9.56
2023-01-06T23:08:03.367Z,9.56
2023-01-06T23:10:37.264Z,9.63
2023-01-06T23:13:09.317Z,9.60
2023-01-06T23:18:39.772Z,9.52
2023-01-06T23:21:21.477Z,9.54
2023-01-06T23:23:54.128Z,9.56
2023-01-06T23:26:35.018Z,9.48
2023-01-06T23:29:08.801Z,9.44
2023-01-06T23:31:46.691Z,9.44
2023-01-06T23:34:19.209Z,9.47
2023-01-06T23:36:52.663Z,9.34
2023-01-06T23:39:25.316Z,9.37
2023-01-06T23:41:58.016Z,9.41
2023-01-06T23:44:30.336Z,9.40
2023-01-06T23:47:02.691Z,9.45
2023-01-06T23:49:35.009Z,9.47
2023-01-06T23:52:06.910Z,9.47
2023-01-06T23:54:39.706Z,9.46
2023-01-06T23:57:12.836Z,9.49
2023-01-06T23:59:45.288Z,9.45
